Time;durP1;ratioP1;P1;durP2;ratioP2;P2;SDS_P1;SDS_P2;PMS_P1;PMS_P2;Temp;Humidity;BMP_temperature;BMP_pressure;BME280_temperature;BME280_humidity;BME280_pressure;Samples;Min_cycle;Max_cycle;Signal;HPM_P1;HPM_P2
2021/10/05 00:00:26;;;;;;;11.43;7.43;;;;;;;12.19;55.06;101912.34;3377076;29;20032;-76
2021/10/05 00:02:08;;;;;;;13.00;8.68;;;;;;;12.16;55.24;101915.34;3375749;29;20041;-81
2021/10/05 00:03:49;;;;;;;12.38;7.65;;;;;;;12.13;55.19;101910.28;3377263;29;20052;-77
2021/10/05 00:05:29;;;;;;;11.18;7.65;;;;;;;12.07;55.30;101918.88;3376774;29;20104;-77
2021/10/05 00:07:10;;;;;;;11.43;7.40;;;;;;;12.05;55.30;101912.84;3376306;29;20147;-77
2021/10/05 00:08:51;;;;;;;13.15;7.30;;;;;;;12.03;55.29;101914.00;3376695;29;20504;-78
2021/10/05 00:10:31;;;;;;;10.48;7.03;;;;;;;12.02;55.39;101913.16;3376485;29;20036;-78
2021/10/05 00:12:12;;;;;;;11.48;7.00;;;;;;;11.99;55.40;101910.78;3376491;29;20095;-78
2021/10/05 00:13:53;;;;;;;10.75;7.32;;;;;;;11.97;55.54;101918.09;3376268;29;20070;-79
2021/10/05 00:15:33;;;;;;;12.48;6.63;;;;;;;11.94;55.61;101921.06;3375686;29;20088;-78
2021/10/05 00:17:14;;;;;;;13.38;7.28;;;;;;;11.86;55.55;101913.81;3372663;29;20032;-77
2021/10/05 00:18:55;;;;;;;11.00;7.50;;;;;;;11.87;55.91;101909.28;3373037;29;20052;-77
2021/10/05 00:20:35;;;;;;;9.32;7.07;;;;;;;11.94;55.82;101915.72;3399601;29;20048;-79
2021/10/05 00:22:16;;;;;;;9.40;6.68;;;;;;;11.94;55.67;101910.38;3381915;29;20059;-77
2021/10/05 00:23:57;;;;;;;13.32;7.30;;;;;;;11.96;55.60;101914.59;3376263;29;20080;-75
2021/10/05 00:25:38;;;;;;;10.32;7.05;;;;;;;11.97;55.42;101923.44;3376522;29;20567;-75
2021/10/05 00:27:18;;;;;;;12.70;7.53;;;;;;;11.95;55.66;101912.06;3375421;29;20044;-76
2021/10/05 00:28:59;;;;;;;10.95;7.28;;;;;;;11.96;55.47;101914.59;3373116;29;20052;-76
2021/10/05 00:30:40;;;;;;;10.32;7.40;;;;;;;11.98;55.54;101911.78;3376323;29;20044;-77
2021/10/05 00:32:20;;;;;;;13.18;7.72;;;;;;;11.94;55.45;101913.06;3375815;29;20419;-80
2021/10/05 00:34:01;;;;;;;11.75;7.65;;;;;;;11.93;55.77;101914.91;3375726;29;20046;-76
2021/10/05 00:35:42;;;;;;;15.90;7.47;;;;;;;11.93;55.71;101916.72;3377363;29;20040;-79
2021/10/05 00:37:22;;;;;;;9.77;7.50;;;;;;;11.89;55.78;101912.66;3379671;29;20138;-78
2021/10/05 00:39:03;;;;;;;13.48;8.25;;;;;;;11.91;55.91;101916.88;3377734;29;20043;-78
2021/10/05 00:40:44;;;;;;;11.43;7.57;;;;;;;11.91;55.85;101913.38;3402456;29;20578;-79
2021/10/05 00:42:25;;;;;;;12.13;8.13;;;;;;;11.88;55.83;101911.00;3379336;29;20045;-77
2021/10/05 00:44:06;;;;;;;12.23;8.45;;;;;;;11.85;55.93;101911.22;3377093;29;20036;-77
2021/10/05 00:45:47;;;;;;;11.32;8.15;;;;;;;11.84;55.88;101914.91;3404811;29;20039;-78
2021/10/05 00:47:27;;;;;;;11.32;7.78;;;;;;;11.82;55.97;101919.53;3384197;29;20111;-78
2021/10/05 00:49:08;;;;;;;10.43;7.47;;;;;;;11.81;56.11;101916.03;3376260;29;20040;-80
2021/10/05 00:50:49;;;;;;;12.93;7.70;;;;;;;11.78;56.19;101905.66;3381475;29;20077;-77
2021/10/05 00:52:29;;;;;;;10.63;7.55;;;;;;;11.78;55.96;101911.00;3379800;29;20175;-76
2021/10/05 00:54:10;;;;;;;12.93;9.55;;;;;;;11.80;56.04;101914.38;3378527;29;20492;-77
2021/10/05 00:55:51;;;;;;;16.33;8.75;;;;;;;11.75;56.24;101906.78;3379289;29;20048;-77
2021/10/05 00:57:32;;;;;;;15.20;8.98;;;;;;;11.75;56.26;101916.66;3381753;29;20516;-78
2021/10/05 00:59:12;;;;;;;14.35;8.13;;;;;;;11.69;56.11;101907.38;3382439;29;20041;-76
2021/10/05 01:00:53;;;;;;;11.25;8.55;;;;;;;11.70;56.25;101913.56;3379335;29;20071;-76
2021/10/05 01:02:34;;;;;;;12.10;8.18;;;;;;;11.70;56.41;101925.09;3375995;29;20112;-76
2021/10/05 01:04:15;;;;;;;13.55;8.70;;;;;;;11.69;56.35;101906.53;3375547;29;20048;-76
2021/10/05 01:05:56;;;;;;;15.60;9.95;;;;;;;11.68;56.52;101916.38;3375689;29;20059;-75
2021/10/05 01:07:37;;;;;;;15.98;9.52;;;;;;;11.67;56.29;101912.03;3377113;29;20048;-77
2021/10/05 01:09:17;;;;;;;13.48;9.05;;;;;;;11.68;56.46;101916.38;3363073;29;20055;-77
2021/10/05 01:10:59;;;;;;;20.35;9.95;;;;;;;11.67;56.71;101911.16;3395806;29;20053;-80
2021/10/05 01:12:39;;;;;;;13.55;9.27;;;;;;;11.68;56.70;101921.72;3377334;29;20053;-77
2021/10/05 01:14:21;;;;;;;14.13;9.50;;;;;;;11.67;56.66;101922.72;3374677;29;20049;-77
2021/10/05 01:16:02;;;;;;;16.83;10.40;;;;;;;11.67;56.64;101913.84;3375604;29;20123;-77
2021/10/05 01:17:43;;;;;;;15.93;9.23;;;;;;;11.66;56.83;101922.84;3375985;29;20048;-77
2021/10/05 01:19:24;;;;;;;15.95;10.88;;;;;;;11.63;56.84;101918.66;3375961;29;20054;-77
2021/10/05 01:21:08;;;;;;;13.88;9.80;;;;;;;11.60;56.74;101916.28;3375931;29;20055;-79
2021/10/05 01:22:49;;;;;;;19.50;11.13;;;;;;;11.58;56.71;101918.25;3374608;29;20044;-76
2021/10/05 01:24:30;;;;;;;16.25;10.45;;;;;;;11.54;56.86;101912.38;3360802;29;20052;-79
2021/10/05 01:26:10;;;;;;;16.90;10.77;;;;;;;11.61;56.74;101925.97;3364302;29;20048;-78
2021/10/05 01:27:53;;;;;;;16.40;10.38;;;;;;;11.63;56.90;101925.81;3363803;29;20048;-79
2021/10/05 01:29:34;;;;;;;17.58;9.50;;;;;;;11.63;56.87;101926.66;3363480;29;20044;-79
2021/10/05 01:31:15;;;;;;;18.00;10.57;;;;;;;11.63;56.91;101923.16;3363212;29;20069;-78
2021/10/05 01:32:55;;;;;;;14.07;10.38;;;;;;;11.59;56.84;101925.28;3365029;29;20135;-79
2021/10/05 01:34:36;;;;;;;16.48;10.32;;;;;;;11.51;56.94;101919.81;3374499;29;20052;-79
2021/10/05 01:36:17;;;;;;;17.60;9.63;;;;;;;11.40;57.11;101903.97;3375325;29;20052;-76
2021/10/05 01:37:57;;;;;;;14.75;9.38;;;;;;;11.58;57.02;101932.44;3375410;29;20045;-79
2021/10/05 01:39:38;;;;;;;14.18;8.52;;;;;;;11.54;56.91;101936.41;3375614;29;20048;-77
2021/10/05 01:41:19;;;;;;;23.38;10.57;;;;;;;11.55;57.09;101935.41;3375579;29;20128;-79
2021/10/05 01:43:00;;;;;;;13.95;9.52;;;;;;;11.52;56.93;101930.34;3375169;29;20567;-77
2021/10/05 01:44:41;;;;;;;14.63;8.52;;;;;;;11.56;57.06;101934.44;3387540;29;20079;-77
2021/10/05 01:46:21;;;;;;;13.68;9.43;;;;;;;11.56;57.12;101936.22;3374499;29;20539;-77
2021/10/05 01:48:02;;;;;;;13.23;8.38;;;;;;;11.57;57.06;101935.25;3375359;29;20059;-77
2021/10/05 01:49:43;;;;;;;14.82;9.05;;;;;;;11.57;57.04;101929.94;3375336;29;20063;-78
2021/10/05 01:51:23;;;;;;;13.68;7.82;;;;;;;11.58;57.11;101924.41;3375536;29;20045;-80
2021/10/05 01:53:04;;;;;;;14.77;8.75;;;;;;;11.54;56.87;101915.03;3375979;29;20049;-75
2021/10/05 01:54:45;;;;;;;13.43;8.27;;;;;;;11.58;56.99;101931.59;3374897;29;20591;-77
2021/10/05 01:56:26;;;;;;;13.13;8.13;;;;;;;11.53;56.89;101925.84;3375780;29;21389;-78
2021/10/05 01:58:07;;;;;;;13.25;8.02;;;;;;;11.53;57.00;101931.19;3378626;29;20048;-77
2021/10/05 01:59:47;;;;;;;13.25;8.30;;;;;;;11.48;56.98;101928.94;3381586;29;20044;-76
2021/10/05 02:01:28;;;;;;;14.85;8.68;;;;;;;11.53;57.01;101940.03;3380046;29;20583;-76
2021/10/05 02:03:09;;;;;;;11.65;8.50;;;;;;;11.53;56.90;101931.19;3376341;29;20803;-76
2021/10/05 02:04:49;;;;;;;13.80;9.20;;;;;;;11.51;56.98;101941.16;3375369;29;20056;-76
2021/10/05 02:06:30;;;;;;;16.60;9.48;;;;;;;11.50;57.06;101950.19;3376561;29;20060;-76
2021/10/05 02:08:11;;;;;;;14.43;9.10;;;;;;;11.47;56.89;101934.44;3377022;29;20444;-76
2021/10/05 02:09:52;;;;;;;16.50;8.35;;;;;;;11.48;57.15;101944.97;3376085;29;20037;-76
2021/10/05 02:11:34;;;;;;;13.10;7.85;;;;;;;11.47;57.21;101947.81;3375136;29;20046;-76
2021/10/05 02:13:14;;;;;;;15.57;8.82;;;;;;;11.45;57.17;101955.94;3375517;29;20408;-78
2021/10/05 02:14:55;;;;;;;18.58;8.77;;;;;;;11.42;57.01;101942.88;3374950;29;20052;-80
2021/10/05 02:16:36;;;;;;;12.93;8.50;;;;;;;11.44;57.16;101945.44;3376769;29;20155;-81
2021/10/05 02:18:17;;;;;;;15.38;8.70;;;;;;;11.40;57.01;101944.84;3378377;29;20068;-76
2021/10/05 02:19:57;;;;;;;15.70;9.95;;;;;;;11.38;57.17;101946.81;3378262;29;20100;-78
2021/10/05 02:21:38;;;;;;;12.15;8.25;;;;;;;11.39;57.11;101943.19;3375521;29;20044;-75
2021/10/05 02:23:19;;;;;;;12.13;8.15;;;;;;;11.35;57.09;101945.28;3376502;29;20066;-76
2021/10/05 02:24:59;;;;;;;19.67;9.35;;;;;;;11.19;57.27;101922.84;3375925;29;20092;-76
2021/10/05 02:26:40;;;;;;;15.38;7.90;;;;;;;11.31;57.26;101946.56;3371649;29;20084;-76
2021/10/05 02:28:21;;;;;;;14.73;9.38;;;;;;;11.30;57.18;101955.56;3354349;29;20132;-75
2021/10/05 02:30:03;;;;;;;15.70;9.77;;;;;;;11.27;57.35;101952.34;3370758;29;20063;-77
2021/10/05 02:31:44;;;;;;;11.52;8.18;;;;;;;11.23;57.53;101946.44;3377023;29;20072;-76
2021/10/05 02:33:25;;;;;;;12.40;8.52;;;;;;;11.21;57.38;101952.91;3379268;29;20045;-75
2021/10/05 02:35:06;;;;;;;19.90;9.10;;;;;;;11.15;57.36;101943.63;3378676;29;20056;-76
2021/10/05 02:36:47;;;;;;;11.23;7.60;;;;;;;11.25;57.46;101951.63;3378057;29;20048;-78
2021/10/05 02:38:27;;;;;;;12.07;8.07;;;;;;;11.23;57.17;101946.44;3375272;29;20114;-77
2021/10/05 02:40:10;;;;;;;15.85;8.55;;;;;;;11.26;57.27;101943.50;3375442;29;20523;-78
2021/10/05 02:41:51;;;;;;;13.65;8.43;;;;;;;11.22;57.38;101944.75;3374917;29;20055;-79
2021/10/05 02:43:32;;;;;;;16.03;8.30;;;;;;;11.23;57.42;101954.47;3374319;29;20040;-78
2021/10/05 02:45:13;;;;;;;13.75;8.60;;;;;;;11.20;57.39;101933.38;3374445;29;20045;-79
2021/10/05 02:46:54;;;;;;;12.45;7.88;;;;;;;11.24;57.49;101947.28;3375050;29;20048;-80
2021/10/05 02:48:34;;;;;;;13.40;8.38;;;;;;;11.16;57.50;101934.66;3375332;29;20104;-78
2021/10/05 02:50:15;;;;;;;13.23;8.32;;;;;;;11.24;57.43;101945.47;3374130;29;20097;-81
2021/10/05 02:51:56;;;;;;;14.40;9.63;;;;;;;11.13;57.35;101926.94;3358514;29;20052;-77
2021/10/05 02:53:36;;;;;;;14.15;8.60;;;;;;;11.26;57.33;101948.00;3369039;29;20057;-78
2021/10/05 02:55:17;;;;;;;16.83;9.20;;;;;;;11.28;57.35;101954.00;3375778;29;20052;-78
2021/10/05 02:56:57;;;;;;;10.80;8.05;;;;;;;11.26;57.38;101943.50;3376684;29;20037;-79
2021/10/05 02:58:38;;;;;;;13.23;8.93;;;;;;;11.28;57.53;101952.22;3377611;29;20048;-76
2021/10/05 03:00:19;;;;;;;14.75;9.82;;;;;;;11.22;57.37;101942.09;3380322;29;20064;-77
2021/10/05 03:01:59;;;;;;;13.80;9.25;;;;;;;11.23;57.58;101951.78;3381293;29;20045;-76
2021/10/05 03:03:40;;;;;;;15.20;8.85;;;;;;;11.22;57.50;101950.09;3381788;29;20067;-77
2021/10/05 03:05:21;;;;;;;16.17;9.50;;;;;;;11.19;57.67;101953.06;3385382;29;20048;-75
2021/10/05 03:07:02;;;;;;;14.52;9.63;;;;;;;11.19;57.80;101946.88;3378262;29;20056;-77
2021/10/05 03:08:43;;;;;;;13.65;8.60;;;;;;;11.16;58.04;101952.50;3378902;29;20076;-77
2021/10/05 03:10:23;;;;;;;15.87;8.87;;;;;;;11.14;58.06;101949.97;3382241;29;20127;-79
2021/10/05 03:12:04;;;;;;;12.48;8.65;;;;;;;11.14;57.78;101955.31;3377885;29;20843;-77
2021/10/05 03:13:45;;;;;;;12.93;8.85;;;;;;;11.10;57.87;101948.56;3381650;29;20052;-77
2021/10/05 03:15:26;;;;;;;12.63;8.95;;;;;;;11.10;57.97;101949.41;3378612;29;20044;-77
2021/10/05 03:17:06;;;;;;;15.13;8.50;;;;;;;11.12;57.88;101949.25;3377552;29;20044;-75
2021/10/05 03:18:47;;;;;;;15.32;8.80;;;;;;;11.07;57.95;101941.66;3380194;29;20055;-75
2021/10/05 03:20:28;;;;;;;16.52;8.70;;;;;;;11.07;57.93;101949.69;3406947;29;20059;-79
2021/10/05 03:22:09;;;;;;;14.10;8.73;;;;;;;11.12;57.88;101952.75;3369809;29;20052;-79
2021/10/05 03:23:50;;;;;;;18.80;9.60;;;;;;;11.03;57.89;101934.97;3376235;29;20143;-75
2021/10/05 03:25:31;;;;;;;16.33;8.60;;;;;;;11.04;57.90;101957.13;3375559;29;20044;-77
2021/10/05 03:27:11;;;;;;;14.00;8.93;;;;;;;11.02;58.09;101948.44;3378593;29;20511;-78
2021/10/05 03:28:52;;;;;;;16.35;8.15;;;;;;;11.06;58.05;101955.19;3378326;29;20040;-78
2021/10/05 03:30:33;;;;;;;12.48;7.65;;;;;;;11.05;58.07;101951.69;3379353;29;20439;-75
2021/10/05 03:32:14;;;;;;;13.80;7.85;;;;;;;11.03;58.04;101942.13;3379543;29;20044;-77
2021/10/05 03:33:54;;;;;;;12.00;7.88;;;;;;;11.04;58.18;101951.81;3379029;29;20044;-77
2021/10/05 03:35:35;;;;;;;15.07;9.35;;;;;;;10.88;58.13;101926.53;3377577;29;20040;-77
2021/10/05 03:37:16;;;;;;;13.93;8.85;;;;;;;11.02;58.31;101961.78;3401975;29;20051;-77
2021/10/05 03:38:57;;;;;;;15.93;7.97;;;;;;;11.03;58.28;101966.97;3367196;29;20198;-78
2021/10/05 03:40:38;;;;;;;20.27;9.02;;;;;;;11.06;58.52;101963.19;3361056;29;20048;-78
2021/10/05 03:42:19;;;;;;;11.75;7.93;;;;;;;11.06;58.36;101964.03;3369067;29;20032;-77
2021/10/05 03:43:59;;;;;;;14.27;8.02;;;;;;;11.08;58.44;101961.22;3377217;29;20052;-77
2021/10/05 03:45:41;;;;;;;13.25;7.55;;;;;;;11.09;58.11;101958.41;3375328;29;20052;-78
2021/10/05 03:47:22;;;;;;;11.15;7.70;;;;;;;11.09;58.18;101963.72;3377504;29;20041;-76
2021/10/05 03:49:03;;;;;;;14.23;8.20;;;;;;;11.04;58.17;101957.13;3377799;29;20064;-78
2021/10/05 03:50:44;;;;;;;16.23;7.65;;;;;;;11.06;58.23;101969.34;3378046;29;20424;-82
2021/10/05 03:52:25;;;;;;;13.43;7.80;;;;;;;11.05;58.58;101969.53;3363778;29;20049;-80
2021/10/05 03:54:05;;;;;;;19.95;7.60;;;;;;;11.06;58.19;101964.03;3375057;29;20044;-78
2021/10/05 03:55:52;;;;;;;13.95;8.27;;;;;;;11.05;58.33;101975.69;3377275;29;20048;-83
2021/10/05 03:57:33;;;;;;;14.13;8.32;;;;;;;11.04;58.27;101965.16;3376476;29;20041;-79
2021/10/05 03:59:17;;;;;;;10.93;8.05;;;;;;;11.06;58.48;101965.84;3374036;29;20075;-79
2021/10/05 04:00:58;;;;;;;13.38;8.55;;;;;;;11.08;58.28;101971.91;3378175;29;20157;-80
2021/10/05 04:02:38;;;;;;;17.15;8.10;;;;;;;11.08;58.38;101969.22;3389215;29;20549;-78
2021/10/05 04:04:19;;;;;;;14.88;8.10;;;;;;;11.09;58.32;101968.22;3381128;29;20048;-80
2021/10/05 04:06:00;;;;;;;12.35;8.25;;;;;;;11.14;58.24;101982.00;3376229;29;20057;-79
2021/10/05 04:07:40;;;;;;;14.93;9.25;;;;;;;11.14;58.29;101972.16;3376771;29;20131;-79
2021/10/05 04:09:21;;;;;;;13.80;8.68;;;;;;;11.18;58.15;101978.06;3361436;29;20037;-80
2021/10/05 04:11:05;;;;;;;13.80;8.18;;;;;;;11.16;58.32;101973.84;3374452;29;20135;-78
2021/10/05 04:12:45;;;;;;;12.82;8.35;;;;;;;11.13;58.03;101969.66;3378012;29;20045;-79
2021/10/05 04:14:26;;;;;;;13.32;8.25;;;;;;;11.05;58.26;101964.19;3377563;29;20047;-78
2021/10/05 04:16:07;;;;;;;14.07;8.65;;;;;;;11.08;58.28;101974.56;3364667;29;20045;-78
2021/10/05 04:17:48;;;;;;;12.52;8.45;;;;;;;11.15;58.27;101975.66;3374819;29;20468;-79
2021/10/05 04:19:29;;;;;;;11.57;7.43;;;;;;;11.28;58.32;101984.25;3378223;29;20512;-79
2021/10/05 04:21:10;;;;;;;12.85;7.88;;;;;;;11.33;58.08;101983.78;3377787;29;20052;-77
2021/10/05 04:22:50;;;;;;;12.13;8.37;;;;;;;11.30;58.00;101982.25;3377599;29;20456;-80
2021/10/05 04:24:31;;;;;;;15.32;8.18;;;;;;;11.26;57.96;101985.38;3377085;29;20056;-79
2021/10/05 04:26:12;;;;;;;11.65;7.47;;;;;;;11.20;58.03;101983.25;3376247;29;20044;-82
2021/10/05 04:27:54;;;;;;;11.82;7.32;;;;;;;11.20;58.07;101978.75;3372627;29;20550;-81
2021/10/05 04:29:34;;;;;;;11.65;7.50;;;;;;;11.23;58.13;101986.50;3373410;29;20056;-81
2021/10/05 04:31:15;;;;;;;14.35;8.13;;;;;;;11.26;58.24;101978.19;3376329;29;20049;-81
2021/10/05 04:32:56;;;;;;;11.57;7.47;;;;;;;11.27;58.08;101987.88;3377085;29;20068;-83
2021/10/05 04:34:36;;;;;;;17.10;8.52;;;;;;;11.24;58.11;101976.66;3377729;29;20064;-79
2021/10/05 04:36:17;;;;;;;16.58;8.50;;;;;;;11.22;58.24;101984.78;3377878;29;20064;-80
2021/10/05 04:37:58;;;;;;;14.00;7.72;;;;;;;11.14;58.10;101974.00;3378979;29;20431;-80
2021/10/05 04:39:38;;;;;;;13.65;9.00;;;;;;;11.17;58.19;101984.38;3377351;29;20570;-82
2021/10/05 04:41:19;;;;;;;13.57;5.50;;;;;;;11.26;59.31;101975.53;3377606;29;20155;-73
2021/10/05 04:43:00;;;;;;;12.95;6.18;;;;;;;11.67;59.77;101981.50;3375099;29;20041;-73
2021/10/05 04:44:40;;;;;;;13.63;6.18;;;;;;;12.25;59.33;101976.91;3375830;29;20529;-73
2021/10/05 04:46:21;;;;;;;10.40;6.25;;;;;;;12.69;58.05;101975.22;3376319;29;20107;-72
2021/10/05 04:48:06;;;;;;;10.20;5.68;;;;;;;13.14;57.64;101979.66;3374316;29;20577;-72
2021/10/05 04:49:47;;;;;;;8.73;6.47;;;;;;;13.51;56.41;101971.41;3375940;29;20052;-71
2021/10/05 04:51:27;;;;;;;8.73;5.53;;;;;;;13.82;56.01;101978.97;3375437;29;20092;-71
2021/10/05 04:53:08;;;;;;;10.23;5.88;;;;;;;14.16;55.87;101986.16;3375811;29;20547;-77
2021/10/05 04:54:49;;;;;;;13.18;7.35;;;;;;;14.29;54.58;101981.16;3375731;29;20051;-77
2021/10/05 04:56:29;;;;;;;10.70;6.93;;;;;;;14.24;53.76;101994.22;3374621;29;20422;-76
2021/10/05 04:58:11;;;;;;;14.05;7.20;;;;;;;14.14;53.54;101988.16;3390688;29;20083;-77
2021/10/05 04:59:52;;;;;;;12.00;6.40;;;;;;;14.17;54.28;102001.22;3377769;29;20041;-76
2021/10/05 05:01:32;;;;;;;13.25;7.22;;;;;;;14.13;54.07;102002.56;3372251;29;20044;-77
2021/10/05 05:03:15;;;;;;;13.98;6.63;;;;;;;14.01;53.51;101996.63;3375799;29;20438;-77
2021/10/05 05:04:55;;;;;;;12.13;7.25;;;;;;;13.89;53.93;102011.34;3376084;29;20112;-76
2021/10/05 05:06:39;;;;;;;14.15;7.25;;;;;;;13.79;54.32;102011.44;3375489;29;20531;-75
2021/10/05 05:08:20;;;;;;;11.02;7.10;;;;;;;13.69;54.14;102010.72;3375450;29;20071;-76
2021/10/05 05:10:04;;;;;;;13.20;7.45;;;;;;;13.61;54.28;102008.81;3376083;29;20055;-76
2021/10/05 05:11:45;;;;;;;14.57;7.75;;;;;;;13.61;54.46;102008.81;3375723;29;20143;-72
2021/10/05 05:13:25;;;;;;;14.85;8.25;;;;;;;13.59;54.48;102008.13;3375733;29;20418;-76
2021/10/05 05:15:07;;;;;;;10.82;8.65;;;;;;;13.56;54.23;102005.78;3374337;29;20052;-76
2021/10/05 05:16:48;;;;;;;14.02;8.27;;;;;;;13.55;54.96;102008.59;3374638;29;20052;-76
2021/10/05 05:18:29;;;;;;;13.18;7.45;;;;;;;13.60;56.46;102009.81;3374645;29;20051;-75
2021/10/05 05:20:10;;;;;;;12.27;6.95;;;;;;;13.67;56.12;102007.34;3374962;29;20048;-76
2021/10/05 05:21:50;;;;;;;11.90;7.67;;;;;;;13.71;54.97;102003.38;3375568;29;20044;-75
2021/10/05 05:23:31;;;;;;;10.43;7.22;;;;;;;13.70;54.63;102013.22;3374820;29;20238;-75
2021/10/05 05:25:13;;;;;;;13.13;8.07;;;;;;;13.58;54.38;102008.28;3372170;29;20053;-77
2021/10/05 05:26:54;;;;;;;9.25;7.32;;;;;;;13.45;54.49;102009.56;3375956;29;20107;-76
2021/10/05 05:28:34;;;;;;;13.77;7.05;;;;;;;13.41;54.67;102010.00;3374961;29;20049;-75
2021/10/05 05:30:15;;;;;;;13.35;7.90;;;;;;;13.38;54.89;102008.50;3375302;29;20083;-75
2021/10/05 05:31:58;;;;;;;15.95;6.32;;;;;;;13.38;55.32;102013.84;3375763;29;20051;-74
2021/10/05 05:33:38;;;;;;;14.90;7.15;;;;;;;13.59;55.04;102015.34;3375838;29;20510;-74
2021/10/05 05:35:19;;;;;;;12.27;7.47;;;;;;;13.70;54.50;102009.69;3375534;29;20112;-79
2021/10/05 05:37:00;;;;;;;10.18;7.00;;;;;;;13.77;54.13;102010.75;3375935;29;20052;-78
2021/10/05 05:38:41;;;;;;;9.73;6.38;;;;;;;13.83;54.95;102014.66;3375613;29;20560;-80
2021/10/05 05:40:21;;;;;;;11.40;7.70;;;;;;;13.94;54.98;102017.91;3375690;29;20040;-75
2021/10/05 05:42:02;;;;;;;13.57;8.07;;;;;;;13.93;53.80;102026.94;3377043;29;20444;-75
2021/10/05 05:43:44;;;;;;;14.88;7.65;;;;;;;13.86;53.83;102020.53;3374607;29;20055;-75
2021/10/05 05:45:25;;;;;;;11.27;6.78;;;;;;;13.74;53.68;102019.13;3399068;29;20170;-77
2021/10/05 05:47:06;;;;;;;9.77;7.65;;;;;;;13.59;53.81;102015.34;3380080;29;20048;-77
2021/10/05 05:48:47;;;;;;;13.25;7.93;;;;;;;13.44;54.03;102013.22;3374343;29;20040;-76
2021/10/05 05:50:28;;;;;;;11.23;7.38;;;;;;;13.34;54.15;102023.19;3375201;29;20040;-77
2021/10/05 05:52:08;;;;;;;12.55;7.68;;;;;;;13.28;54.24;102026.47;3374754;29;20048;-77
2021/10/05 05:53:49;;;;;;;15.60;7.40;;;;;;;13.25;55.04;102013.38;3374593;29;20159;-75
2021/10/05 05:55:29;;;;;;;20.30;6.70;;;;;;;13.25;54.96;102030.28;3375414;29;20046;-76
2021/10/05 05:57:10;;;;;;;14.00;7.32;;;;;;;13.29;55.35;102020.13;3375416;29;20047;-75
2021/10/05 05:58:54;;;;;;;12.00;6.13;;;;;;;13.49;55.15;102029.66;3374585;29;20131;-74
2021/10/05 06:00:36;;;;;;;12.05;6.97;;;;;;;13.75;54.87;102024.31;3367059;29;20112;-75
2021/10/05 06:02:17;;;;;;;11.68;7.40;;;;;;;13.79;54.15;102016.81;3372186;29;20045;-75
2021/10/05 06:03:58;;;;;;;14.98;7.20;;;;;;;13.68;53.65;102015.25;3362177;29;20055;-76
2021/10/05 06:05:39;;;;;;;13.20;7.30;;;;;;;13.60;53.81;102017.00;3361779;29;20044;-75
2021/10/05 06:07:20;;;;;;;14.25;7.13;;;;;;;13.46;54.01;102027.28;3372117;29;20048;-73
2021/10/05 06:09:03;;;;;;;14.80;8.55;;;;;;;13.34;54.14;102022.34;3375727;29;20052;-75
2021/10/05 06:10:44;;;;;;;13.25;7.20;;;;;;;13.25;54.46;102016.06;3375147;29;20049;-75
2021/10/05 06:12:36;;;;;;;11.93;8.25;;;;;;;13.19;54.58;102020.19;3374234;29;20119;-75
2021/10/05 06:14:16;;;;;;;;;;;;;;;13.24;54.45;102022.38;3375234;29;20045;-74
2021/10/05 06:15:57;;;;;;;8.65;6.60;;;;;;;13.16;54.56;102009.78;3374017;29;20307;-74
2021/10/05 06:17:42;;;;;;;11.25;6.70;;;;;;;13.19;54.52;102020.19;3374529;29;20071;-75
2021/10/05 06:19:22;;;;;;;14.43;7.25;;;;;;;13.15;54.60;102029.53;3374256;29;20590;-75
2021/10/05 06:21:03;;;;;;;11.52;6.93;;;;;;;13.09;54.90;102022.94;3374893;29;20045;-75
2021/10/05 06:22:44;;;;;;;8.27;5.57;;;;;;;13.09;55.02;102024.78;3361109;29;20150;-76
2021/10/05 06:24:24;;;;;;;11.35;6.95;;;;;;;13.16;55.08;102022.31;3371927;29;20048;-76
2021/10/05 06:26:05;;;;;;;8.75;6.78;;;;;;;13.20;54.79;102026.38;3374081;29;20527;-76
2021/10/05 06:27:46;;;;;;;8.18;6.30;;;;;;;13.28;54.78;102026.47;3375248;29;20443;-76
2021/10/05 06:29:27;;;;;;;9.80;6.25;;;;;;;13.42;54.53;102031.28;3374280;29;20139;-75
2021/10/05 06:31:10;;;;;;;11.52;5.88;;;;;;;13.50;54.28;102034.03;3377360;29;20104;-76
2021/10/05 06:32:54;;;;;;;11.70;6.30;;;;;;;13.58;54.16;102037.75;3377400;29;20100;-76
2021/10/05 06:34:35;;;;;;;8.60;5.47;;;;;;;13.49;53.97;102031.50;3377757;29;20076;-75
2021/10/05 06:36:15;;;;;;;12.10;6.47;;;;;;;13.45;54.30;102024.75;3376895;29;20484;-75
2021/10/05 06:37:58;;;;;;;10.32;5.50;;;;;;;13.46;54.31;102021.94;3377656;29;20107;-75
2021/10/05 06:39:39;;;;;;;13.52;6.07;;;;;;;13.54;54.17;102029.19;3377869;29;20056;-77
2021/10/05 06:41:21;;;;;;;8.52;6.38;;;;;;;13.53;54.05;102031.03;3377187;29;20451;-75
2021/10/05 06:43:02;;;;;;;7.47;5.80;;;;;;;13.51;54.08;102027.66;3377673;29;20041;-74
2021/10/05 06:44:43;;;;;;;9.50;6.78;;;;;;;13.47;54.27;102031.66;3376477;29;20079;-74
2021/10/05 06:46:24;;;;;;;15.93;6.63;;;;;;;13.45;54.37;102030.97;3377785;29;20504;-79
2021/10/05 06:48:06;;;;;;;12.43;7.47;;;;;;;13.46;54.46;102032.66;3378116;29;20072;-78
2021/10/05 06:49:47;;;;;;;6.78;5.57;;;;;;;13.53;54.73;102039.06;3377077;29;20143;-78
2021/10/05 06:51:27;;;;;;;9.73;7.15;;;;;;;13.66;54.55;102040.50;3386970;29;20048;-76
2021/10/05 06:53:08;;;;;;;6.72;5.43;;;;;;;13.80;54.30;102039.91;3380291;29;20044;-77
2021/10/05 06:54:49;;;;;;;10.10;6.63;;;;;;;13.91;53.94;102042.34;3377847;29;20464;-76
2021/10/05 06:56:30;;;;;;;10.10;6.55;;;;;;;13.95;53.54;102051.75;3378783;29;20049;-75
2021/10/05 06:58:11;;;;;;;8.25;6.45;;;;;;;13.95;53.35;102043.69;3379215;29;20571;-77
2021/10/05 06:59:51;;;;;;;14.27;6.43;;;;;;;13.94;53.42;102052.75;3378873;29;20040;-78
2021/10/05 07:01:32;;;;;;;10.75;7.18;;;;;;;13.92;53.34;102044.03;3378476;29;20452;-75
2021/10/05 07:03:13;;;;;;;6.90;6.13;;;;;;;13.82;53.53;102045.97;3378789;29;20385;-75
2021/10/05 07:04:53;;;;;;;12.30;7.82;;;;;;;13.74;53.65;102051.28;3378054;29;20063;-76
2021/10/05 07:06:36;;;;;;;11.55;7.75;;;;;;;13.68;53.77;102043.84;3376412;29;20076;-77
2021/10/05 07:08:17;;;;;;;7.93;7.05;;;;;;;13.71;53.86;102046.25;3388398;29;20096;-75
2021/10/05 07:09:58;;;;;;;10.13;7.20;;;;;;;13.72;53.82;102037.19;3379607;29;20045;-75
2021/10/05 07:11:38;;;;;;;12.23;7.80;;;;;;;13.72;53.69;102042.56;3376971;29;20056;-74
2021/10/05 07:13:19;;;;;;;14.85;7.63;;;;;;;13.69;53.79;102048.22;3377623;29;20048;-77
2021/10/05 07:15:01;;;;;;;10.02;7.75;;;;;;;13.64;53.97;102053.22;3377684;29;20063;-77
2021/10/05 07:16:41;;;;;;;;;;;;;;;13.74;53.57;102045.91;3377730;29;20136;-75
2021/10/05 07:18:22;;;;;;;11.20;8.15;;;;;;;13.64;53.68;102056.72;3366136;29;19923;-76
2021/10/05 07:20:04;;;;;;;14.95;7.28;;;;;;;13.59;54.03;102052.84;3374562;29;20073;-77
2021/10/05 07:21:45;;;;;;;13.73;7.57;;;;;;;13.59;54.00;102048.31;3363588;29;20064;-77
2021/10/05 07:23:26;;;;;;;11.50;7.70;;;;;;;13.58;54.04;102048.47;3376302;29;20041;-77
2021/10/05 07:25:07;;;;;;;9.27;7.40;;;;;;;13.52;54.12;102058.81;3376838;29;20088;-75
2021/10/05 07:26:48;;;;;;;11.18;7.25;;;;;;;13.48;54.23;102054.78;3377331;29;20052;-74
2021/10/05 07:28:29;;;;;;;13.75;7.80;;;;;;;13.50;54.23;102054.59;3376472;29;20579;-74
2021/10/05 07:30:10;;;;;;;8.95;6.85;;;;;;;13.51;54.21;102057.13;3367135;29;20041;-75
2021/10/05 07:31:51;;;;;;;10.95;6.70;;;;;;;13.50;54.19;102049.25;3373324;29;20500;-76
2021/10/05 07:33:31;;;;;;;9.85;6.82;;;;;;;13.49;54.29;102051.09;3376079;29;20866;-76
2021/10/05 07:35:12;;;;;;;15.95;7.72;;;;;;;13.52;54.15;102047.25;3375506;29;20084;-77
2021/10/05 07:36:53;;;;;;;11.27;6.72;;;;;;;13.61;54.04;102048.19;3375421;29;20499;-76
2021/10/05 07:38:33;;;;;;;11.23;7.15;;;;;;;13.69;53.91;102050.91;3383370;29;20074;-77
2021/10/05 07:40:18;;;;;;;11.15;7.10;;;;;;;13.83;53.83;102054.84;3378163;29;20480;-77
2021/10/05 07:41:59;;;;;;;9.98;6.78;;;;;;;13.96;53.96;102053.44;3376553;29;20048;-76
2021/10/05 07:43:39;;;;;;;9.82;6.97;;;;;;;14.06;53.47;102058.69;3376011;29;20060;-77
2021/10/05 07:45:21;;;;;;;9.30;7.15;;;;;;;14.06;53.46;102055.16;3363136;29;20101;-79